Time,TemperatureF,DewpointF,PressureIn,WindDirection,WindDirectionDegrees,WindSpeedMPH,WindSpeedGustMPH,Humidity,HourlyPrecipIn,Conditions,Clouds,dailyrainin,SoftwareType,DateUTC
2013-06-15 00:06:00,56.6,53.0,29.88,WSW,254,0.0,6.0,88,0.00,,,0.00,weatherlink.com 1.10,2013-06-15 04:06:00,
2013-06-15 00:21:00,56.6,53.0,29.89,NW,304,2.0,6.0,88,0.00,,,0.00,weatherlink.com 1.10,2013-06-15 04:21:00,
2013-06-15 00:36:00,55.1,52.0,29.88,NNW,328,1.0,4.0,89,0.00,,,0.00,weatherlink.com 1.10,2013-06-15 04:36:00,
2013-06-15 00:52:00,53.1,50.0,29.89,NNW,328,0.0,0.0,90,0.00,,,0.00,weatherlink.com 1.10,2013-06-15 04:52:00,
2013-06-15 01:07:00,52.1,50.0,29.89,NNW,328,0.0,0.0,91,0.00,,,0.00,weatherlink.com 1.10,2013-06-15 05:07:00,
2013-06-15 01:22:00,51.3,49.0,29.89,NNW,328,0.0,1.0,93,0.00,,,0.00,weatherlink.com 1.10,2013-06-15 05:22:00,
2013-06-15 01:37:00,50.6,49.0,29.89,NNW,328,0.0,0.0,93,0.00,,,0.00,weatherlink.com 1.10,2013-06-15 05:37:00,
2013-06-15 01:52:00,50.0,48.0,29.90,NNW,328,0.0,0.0,93,0.00,,,0.00,weatherlink.com 1.10,2013-06-15 05:52:00,
2013-06-15 02:07:00,49.5,48.0,29.90,NNW,328,0.0,1.0,94,0.00,,,0.00,weatherlink.com 1.10,2013-06-15 06:07:00,
2013-06-15 02:22:00,49.0,47.0,29.91,NNW,328,0.0,0.0,94,0.00,,,0.00,weatherlink.com 1.10,2013-06-15 06:22:00,
2013-06-15 02:37:00,48.5,47.0,29.91,NNW,328,0.0,2.0,94,0.00,,,0.00,weatherlink.com 1.10,2013-06-15 06:37:00,
2013-06-15 02:52:00,48.6,47.0,29.90,NNW,328,1.0,1.0,95,0.00,,,0.00,weatherlink.com 1.10,2013-06-15 06:52:00,
2013-06-15 03:07:00,48.2,47.0,29.90,NNW,328,0.0,0.0,95,0.00,,,0.00,weatherlink.com 1.10,2013-06-15 07:07:00,
2013-06-15 03:23:00,48.3,47.0,29.91,NNW,328,0.0,0.0,95,0.00,,,0.00,weatherlink.com 1.10,2013-06-15 07:23:00,
2013-06-15 03:38:00,47.9,47.0,29.91,NNW,328,0.0,0.0,95,0.00,,,0.00,weatherlink.com 1.10,2013-06-15 07:38:00,
2013-06-15 03:53:00,47.5,46.0,29.91,NNW,328,0.0,0.0,95,0.00,,,0.00,weatherlink.com 1.10,2013-06-15 07:53:00,
2013-06-15 04:08:00,47.0,46.0,29.91,NNW,328,0.0,1.0,95,0.00,,,0.00,weatherlink.com 1.10,2013-06-15 08:08:00,
2013-06-15 04:23:00,46.9,46.0,29.91,NNW,328,0.0,0.0,95,0.00,,,0.00,weatherlink.com 1.10,2013-06-15 08:23:00,
2013-06-15 04:38:00,46.7,45.0,29.91,NNW,328,0.0,0.0,95,0.00,,,0.00,weatherlink.com 1.10,2013-06-15 08:38:00,
2013-06-15 04:53:00,46.1,45.0,29.92,NNW,328,0.0,0.0,95,0.00,,,0.00,weatherlink.com 1.10,2013-06-15 08:53:00,
2013-06-15 05:09:00,45.5,44.0,29.91,NNW,328,1.0,2.0,95,0.00,,,0.00,weatherlink.com 1.10,2013-06-15 09:09:00,
2013-06-15 05:23:00,45.1,44.0,29.92,North,9,0.0,0.0,95,0.00,,,0.00,weatherlink.com 1.10,2013-06-15 09:23:00,
2013-06-15 05:38:00,44.8,44.0,29.92,North,9,0.0,0.0,95,0.00,,,0.00,weatherlink.com 1.10,2013-06-15 09:38:00,
2013-06-15 05:54:00,44.8,44.0,29.92,North,9,0.0,0.0,96,0.00,,,0.00,weatherlink.com 1.10,2013-06-15 09:54:00,
2013-06-15 06:09:00,45.8,45.0,29.93,North,9,0.0,2.0,96,0.00,,,0.00,weatherlink.com 1.10,2013-06-15 10:09:00,
2013-06-15 06:25:00,46.0,45.0,29.93,NNE,30,1.0,1.0,96,0.00,,,0.00,weatherlink.com 1.10,2013-06-15 10:25:00,
2013-06-15 06:39:00,46.9,46.0,29.93,North,9,0.0,1.0,96,0.00,,,0.00,weatherlink.com 1.10,2013-06-15 10:39:00,
2013-06-15 06:54:00,47.1,46.0,29.94,North,9,0.0,1.0,96,0.00,,,0.00,weatherlink.com 1.10,2013-06-15 10:54:00,
2013-06-15 07:09:00,48.3,47.0,29.94,North,9,0.0,2.0,96,0.00,,,0.00,weatherlink.com 1.10,2013-06-15 11:09:00,
2013-06-15 07:24:00,49.7,49.0,29.94,WNW,288,0.0,1.0,96,0.00,,,0.00,weatherlink.com 1.10,2013-06-15 11:24:00,
2013-06-15 07:40:00,50.5,49.0,29.95,WNW,288,0.0,1.0,96,0.00,,,0.00,weatherlink.com 1.10,2013-06-15 11:40:00,
2013-06-15 07:55:00,52.8,52.0,29.96,North,11,0.0,2.0,96,0.00,,,0.00,weatherlink.com 1.10,2013-06-15 11:55:00,
2013-06-15 08:10:00,54.4,53.0,29.96,North,11,0.0,2.0,95,0.00,,,0.00,weatherlink.com 1.10,2013-06-15 12:10:00,
2013-06-15 08:25:00,56.7,52.0,29.97,NNW,328,3.0,6.0,83,0.00,,,0.00,weatherlink.com 1.10,2013-06-15 12:25:00,
2013-06-15 08:40:00,58.2,51.0,29.97,NNW,336,2.0,8.0,77,0.00,,,0.00,weatherlink.com 1.10,2013-06-15 12:40:00,
2013-06-15 08:55:00,59.1,51.0,29.98,North,355,5.0,8.0,74,0.00,,,0.00,weatherlink.com 1.10,2013-06-15 12:55:00,
2013-06-15 09:11:00,60.0,51.0,29.97,North,9,3.0,8.0,72,0.00,,,0.00,weatherlink.com 1.10,2013-06-15 13:11:00,
2013-06-15 09:26:00,60.8,52.0,29.97,NNE,18,3.0,6.0,72,0.00,,,0.00,weatherlink.com 1.10,2013-06-15 13:26:00,
2013-06-15 09:41:00,61.4,51.0,29.96,North,5,2.0,6.0,69,0.00,,,0.00,weatherlink.com 1.10,2013-06-15 13:41:00,
2013-06-15 09:58:00,62.2,49.0,29.95,North,350,3.0,6.0,63,0.00,,,0.00,weatherlink.com 1.10,2013-06-15 13:58:00,
2013-06-15 10:11:00,63.2,52.0,29.97,NNW,348,3.0,6.0,66,0.00,,,0.00,weatherlink.com 1.10,2013-06-15 14:11:00,
2013-06-15 10:26:00,63.6,50.0,29.97,NNW,331,7.0,13.0,61,0.00,,,0.00,weatherlink.com 1.10,2013-06-15 14:26:00,
2013-06-15 10:41:00,63.7,51.0,29.96,NW,319,6.0,11.0,63,0.00,,,0.00,weatherlink.com 1.10,2013-06-15 14:41:00,
2013-06-15 10:56:00,64.0,51.0,29.98,NNW,348,5.0,12.0,63,0.00,,,0.00,weatherlink.com 1.10,2013-06-15 14:56:00,
2013-06-15 11:12:00,64.6,50.0,29.97,WNW,283,5.0,11.0,60,0.00,,,0.00,weatherlink.com 1.10,2013-06-15 15:12:00,
2013-06-15 11:27:00,64.9,50.0,29.96,NNW,343,10.0,12.0,58,0.00,,,0.00,weatherlink.com 1.10,2013-06-15 15:27:00,
2013-06-15 11:42:00,65.4,48.0,29.96,NNW,343,7.0,12.0,54,0.00,,,0.00,weatherlink.com 1.10,2013-06-15 15:42:00,
2013-06-15 11:58:00,66.1,49.0,29.96,NNW,328,5.0,14.0,54,0.00,,,0.00,weatherlink.com 1.10,2013-06-15 15:58:00,
2013-06-15 12:12:00,66.8,48.0,29.96,NW,320,7.0,12.0,51,0.00,,,0.00,weatherlink.com 1.10,2013-06-15 16:12:00,
2013-06-15 12:27:00,66.5,51.0,29.96,NNW,347,5.0,19.0,58,0.00,,,0.00,weatherlink.com 1.10,2013-06-15 16:27:00,
2013-06-15 12:43:00,67.3,49.0,29.96,NNW,342,14.0,15.0,53,0.00,,,0.00,weatherlink.com 1.10,2013-06-15 16:43:00,
2013-06-15 12:57:00,66.7,52.0,29.96,NW,308,14.0,14.0,59,0.00,,,0.00,weatherlink.com 1.10,2013-06-15 16:57:00,
2013-06-15 13:12:00,66.3,50.0,29.96,NW,313,6.0,16.0,57,0.00,,,0.00,weatherlink.com 1.10,2013-06-15 17:12:00,
2013-06-15 13:28:00,67.3,50.0,29.95,NW,320,6.0,15.0,54,0.00,,,0.00,weatherlink.com 1.10,2013-06-15 17:28:00,
2013-06-15 13:43:00,67.3,49.0,29.94,North,360,11.0,18.0,52,0.00,,,0.00,weatherlink.com 1.10,2013-06-15 17:43:00,
2013-06-15 13:59:00,67.7,52.0,29.93,NW,325,4.0,15.0,58,0.00,,,0.00,weatherlink.com 1.10,2013-06-15 17:59:00,
2013-06-15 14:13:00,67.8,50.0,29.93,NNW,336,5.0,11.0,54,0.00,,,0.00,weatherlink.com 1.10,2013-06-15 18:13:00,
2013-06-15 14:29:00,68.6,50.0,29.93,NW,319,12.0,18.0,52,0.00,,,0.00,weatherlink.com 1.10,2013-06-15 18:29:00,
2013-06-15 14:43:00,68.2,50.0,29.93,NW,310,5.0,11.0,53,0.00,,,0.00,weatherlink.com 1.10,2013-06-15 18:43:00,
2013-06-15 14:58:00,68.9,48.0,29.92,SW,220,6.0,16.0,48,0.00,,,0.00,weatherlink.com 1.10,2013-06-15 18:58:00,
2013-06-15 15:13:00,68.5,50.0,29.92,NNW,342,9.0,15.0,51,0.00,,,0.00,weatherlink.com 1.10,2013-06-15 19:13:00,
2013-06-15 15:28:00,68.9,50.0,29.91,NW,325,2.0,16.0,51,0.00,,,0.00,weatherlink.com 1.10,2013-06-15 19:28:00,
2013-06-15 15:43:00,69.6,50.0,29.91,North,355,3.0,13.0,50,0.00,,,0.00,weatherlink.com 1.10,2013-06-15 19:43:00,
2013-06-15 15:59:00,69.7,48.0,29.91,NNW,340,4.0,19.0,46,0.00,,,0.00,weatherlink.com 1.10,2013-06-15 19:59:00,
2013-06-15 16:14:00,69.1,48.0,29.91,North,360,8.0,15.0,47,0.00,,,0.00,weatherlink.com 1.10,2013-06-15 20:14:00,
2013-06-15 16:29:00,69.3,47.0,29.92,NNW,344,7.0,14.0,45,0.00,,,0.00,weatherlink.com 1.10,2013-06-15 20:29:00,
2013-06-15 16:45:00,69.7,47.0,29.91,NNW,336,7.0,12.0,45,0.00,,,0.00,weatherlink.com 1.10,2013-06-15 20:45:00,
2013-06-15 17:00:00,69.5,48.0,29.91,NW,311,6.0,11.0,47,0.00,,,0.00,weatherlink.com 1.10,2013-06-15 21:00:00,
2013-06-15 17:14:00,69.0,47.0,29.91,NNW,344,8.0,13.0,46,0.00,,,0.00,weatherlink.com 1.10,2013-06-15 21:14:00,
2013-06-15 17:29:00,69.3,48.0,29.91,North,351,5.0,13.0,46,0.00,,,0.00,weatherlink.com 1.10,2013-06-15 21:29:00,
2013-06-15 17:44:00,69.3,46.0,29.91,WNW,302,10.0,14.0,43,0.00,,,0.00,weatherlink.com 1.10,2013-06-15 21:44:00,
2013-06-15 17:59:00,68.9,47.0,29.91,NW,318,8.0,12.0,46,0.00,,,0.00,weatherlink.com 1.10,2013-06-15 21:59:00,
2013-06-15 18:14:00,68.8,46.0,29.91,NNW,336,7.0,12.0,45,0.00,,,0.00,weatherlink.com 1.10,2013-06-15 22:14:00,
2013-06-15 18:29:00,68.4,46.0,29.91,WNW,294,6.0,13.0,45,0.00,,,0.00,weatherlink.com 1.10,2013-06-15 22:29:00,
2013-06-15 18:45:00,68.0,49.0,29.91,WNW,294,3.0,10.0,50,0.00,,,0.00,weatherlink.com 1.10,2013-06-15 22:45:00,
2013-06-15 19:00:00,68.0,46.0,29.91,NW,317,5.0,9.0,46,0.00,,,0.00,weatherlink.com 1.10,2013-06-15 23:00:00,
2013-06-15 19:15:00,67.2,47.0,29.92,NW,320,1.0,6.0,48,0.00,,,0.00,weatherlink.com 1.10,2013-06-15 23:15:00,
2013-06-15 19:30:00,66.1,44.0,29.92,WNW,291,4.0,9.0,45,0.00,,,0.00,weatherlink.com 1.10,2013-06-15 23:30:00,
2013-06-15 19:45:00,65.4,46.0,29.92,NW,311,1.0,8.0,49,0.00,,,0.00,weatherlink.com 1.10,2013-06-15 23:45:00,
2013-06-15 20:00:00,63.1,49.0,29.92,SW,230,1.0,2.0,61,0.00,,,0.00,weatherlink.com 1.10,2013-06-16 00:00:00,
2013-06-15 20:15:00,59.8,49.0,29.92,NW,306,2.0,3.0,68,0.00,,,0.00,weatherlink.com 1.10,2013-06-16 00:15:00,
2013-06-15 20:30:00,57.8,49.0,29.92,NW,323,2.0,4.0,73,0.00,,,0.00,weatherlink.com 1.10,2013-06-16 00:30:00,
2013-06-15 20:45:00,56.3,49.0,29.92,NW,323,2.0,4.0,76,0.00,,,0.00,weatherlink.com 1.10,2013-06-16 00:45:00,
2013-06-15 21:00:00,54.9,48.0,29.92,NW,323,2.0,4.0,78,0.00,,,0.00,weatherlink.com 1.10,2013-06-16 01:00:00,
2013-06-15 21:15:00,53.8,48.0,29.93,NW,323,2.0,4.0,80,0.00,,,0.00,weatherlink.com 1.10,2013-06-16 01:15:00,
2013-06-15 21:30:00,53.3,48.0,29.94,NW,323,1.0,3.0,81,0.00,,,0.00,weatherlink.com 1.10,2013-06-16 01:30:00,
2013-06-15 21:46:00,52.6,47.0,29.95,NW,323,0.0,3.0,80,0.00,,,0.00,weatherlink.com 1.10,2013-06-16 01:46:00,
2013-06-15 22:01:00,52.2,47.0,29.95,NW,323,0.0,3.0,83,0.00,,,0.00,weatherlink.com 1.10,2013-06-16 02:01:00,
2013-06-15 22:17:00,51.4,47.0,29.95,NW,323,0.0,1.0,85,0.00,,,0.00,weatherlink.com 1.10,2013-06-16 02:17:00,
2013-06-15 22:32:00,50.8,47.0,29.96,NW,323,0.0,0.0,86,0.00,,,0.00,weatherlink.com 1.10,2013-06-16 02:32:00,
2013-06-15 22:46:00,50.2,46.0,29.96,NW,323,2.0,3.0,86,0.00,,,0.00,weatherlink.com 1.10,2013-06-16 02:46:00,
2013-06-15 23:01:00,50.3,46.0,29.96,NW,323,2.0,3.0,86,0.00,,,0.00,weatherlink.com 1.10,2013-06-16 03:01:00,
2013-06-15 23:18:00,50.0,46.0,29.95,NW,323,0.0,2.0,87,0.00,,,0.00,weatherlink.com 1.10,2013-06-16 03:18:00,
2013-06-15 23:31:00,49.6,47.0,29.96,NW,323,1.0,2.0,89,0.00,,,0.00,weatherlink.com 1.10,2013-06-16 03:31:00,
2013-06-15 23:46:00,49.6,47.0,29.95,NW,323,0.0,2.0,89,0.00,,,0.00,weatherlink.com 1.10,2013-06-16 03:46:00,